sensor_id;sensor_type;location;lat;lon;timestamp;temperature;humidity
5808;DHT22;2930;42.678;23.312;2023-02-26T00:01:41;15.30;58.00
5808;DHT22;2930;42.678;23.312;2023-02-26T00:04:07;15.40;58.60
5808;DHT22;2930;42.678;23.312;2023-02-26T00:06:38;15.30;58.40
5808;DHT22;2930;42.678;23.312;2023-02-26T00:09:17;15.30;58.70
5808;DHT22;2930;42.678;23.312;2023-02-26T00:11:43;15.30;58.40
5808;DHT22;2930;42.678;23.312;2023-02-26T00:14:13;15.30;58.80
5808;DHT22;2930;42.678;23.312;2023-02-26T00:16:39;15.20;57.20
5808;DHT22;2930;42.678;23.312;2023-02-26T00:19:07;15.20;58.20
5808;DHT22;2930;42.678;23.312;2023-02-26T00:21:34;15.30;58.00
5808;DHT22;2930;42.678;23.312;2023-02-26T00:24:00;15.20;58.20
5808;DHT22;2930;42.678;23.312;2023-02-26T00:26:28;15.30;57.70
5808;DHT22;2930;42.678;23.312;2023-02-26T00:28:55;15.20;58.10
5808;DHT22;2930;42.678;23.312;2023-02-26T00:31:21;15.20;57.60
5808;DHT22;2930;42.678;23.312;2023-02-26T00:33:54;15.20;57.70
5808;DHT22;2930;42.678;23.312;2023-02-26T00:42:13;15.00;57.90
5808;DHT22;2930;42.678;23.312;2023-02-26T00:44:39;15.10;58.70
5808;DHT22;2930;42.678;23.312;2023-02-26T00:47:14;15.10;58.20
5808;DHT22;2930;42.678;23.312;2023-02-26T00:53:03;15.10;58.10
5808;DHT22;2930;42.678;23.312;2023-02-26T00:55:31;15.00;57.80
5808;DHT22;2930;42.678;23.312;2023-02-26T00:57:56;15.00;58.10
5808;DHT22;2930;42.678;23.312;2023-02-26T01:00:22;15.00;57.80
5808;DHT22;2930;42.678;23.312;2023-02-26T01:02:48;15.00;56.70
5808;DHT22;2930;42.678;23.312;2023-02-26T01:05:15;15.00;57.30
5808;DHT22;2930;42.678;23.312;2023-02-26T01:11:17;15.10;56.90
5808;DHT22;2930;42.678;23.312;2023-02-26T01:13:43;15.00;57.00
5808;DHT22;2930;42.678;23.312;2023-02-26T01:16:12;15.00;57.30
5808;DHT22;2930;42.678;23.312;2023-02-26T01:18:49;15.00;57.30
5808;DHT22;2930;42.678;23.312;2023-02-26T01:21:21;15.00;57.50
5808;DHT22;2930;42.678;23.312;2023-02-26T01:23:50;15.00;56.80
5808;DHT22;2930;42.678;23.312;2023-02-26T01:26:22;15.00;57.20
5808;DHT22;2930;42.678;23.312;2023-02-26T01:28:48;14.90;57.30
5808;DHT22;2930;42.678;23.312;2023-02-26T01:31:50;14.90;57.70
5808;DHT22;2930;42.678;23.312;2023-02-26T01:34:41;14.90;57.70
5808;DHT22;2930;42.678;23.312;2023-02-26T01:39:47;14.80;57.70
5808;DHT22;2930;42.678;23.312;2023-02-26T01:42:30;14.70;58.20
5808;DHT22;2930;42.678;23.312;2023-02-26T01:45:15;14.70;58.50
5808;DHT22;2930;42.678;23.312;2023-02-26T01:47:53;14.60;58.60
5808;DHT22;2930;42.678;23.312;2023-02-26T01:50:23;14.70;58.70
5808;DHT22;2930;42.678;23.312;2023-02-26T01:55:42;14.70;58.60
5808;DHT22;2930;42.678;23.312;2023-02-26T01:58:08;14.70;58.70
5808;DHT22;2930;42.678;23.312;2023-02-26T02:00:34;14.70;58.40
5808;DHT22;2930;42.678;23.312;2023-02-26T02:03:00;14.60;58.80
5808;DHT22;2930;42.678;23.312;2023-02-26T02:08:05;14.50;59.20
5808;DHT22;2930;42.678;23.312;2023-02-26T02:10:31;14.40;58.70
5808;DHT22;2930;42.678;23.312;2023-02-26T02:18:43;14.40;57.80
5808;DHT22;2930;42.678;23.312;2023-02-26T02:27:03;14.50;56.90
5808;DHT22;2930;42.678;23.312;2023-02-26T02:34:35;14.50;57.10
5808;DHT22;2930;42.678;23.312;2023-02-26T02:37:20;14.50;56.60
5808;DHT22;2930;42.678;23.312;2023-02-26T02:39:55;14.60;56.50
5808;DHT22;2930;42.678;23.312;2023-02-26T02:42:24;14.60;56.60
5808;DHT22;2930;42.678;23.312;2023-02-26T02:44:57;14.60;56.40
5808;DHT22;2930;42.678;23.312;2023-02-26T02:47:25;14.60;56.60
5808;DHT22;2930;42.678;23.312;2023-02-26T02:50:06;14.60;56.30
5808;DHT22;2930;42.678;23.312;2023-02-26T02:52:55;14.60;56.20
5808;DHT22;2930;42.678;23.312;2023-02-26T02:55:39;14.50;56.60
5808;DHT22;2930;42.678;23.312;2023-02-26T02:58:14;14.50;56.30
5808;DHT22;2930;42.678;23.312;2023-02-26T03:00:45;14.60;56.40
5808;DHT22;2930;42.678;23.312;2023-02-26T03:06:04;14.60;56.80
5808;DHT22;2930;42.678;23.312;2023-02-26T03:08:36;14.60;56.90
5808;DHT22;2930;42.678;23.312;2023-02-26T03:11:03;14.60;56.70
5808;DHT22;2930;42.678;23.312;2023-02-26T03:13:29;14.50;56.80
5808;DHT22;2930;42.678;23.312;2023-02-26T03:21:48;14.30;57.10
5808;DHT22;2930;42.678;23.312;2023-02-26T03:27:06;14.20;57.00
5808;DHT22;2930;42.678;23.312;2023-02-26T03:29:49;14.20;56.60
5808;DHT22;2930;42.678;23.312;2023-02-26T03:35:14;14.20;56.90
5808;DHT22;2930;42.678;23.312;2023-02-26T03:37:45;14.20;56.50
5808;DHT22;2930;42.678;23.312;2023-02-26T03:40:24;14.20;56.60
5808;DHT22;2930;42.678;23.312;2023-02-26T03:42:59;14.20;56.50
5808;DHT22;2930;42.678;23.312;2023-02-26T03:45:30;14.20;56.70
5808;DHT22;2930;42.678;23.312;2023-02-26T03:47:58;14.20;56.80
5808;DHT22;2930;42.678;23.312;2023-02-26T03:50:42;14.20;56.80
5808;DHT22;2930;42.678;23.312;2023-02-26T03:53:12;14.30;56.50
5808;DHT22;2930;42.678;23.312;2023-02-26T03:56:04;14.20;56.80
5808;DHT22;2930;42.678;23.312;2023-02-26T03:58:31;14.30;56.80
5808;DHT22;2930;42.678;23.312;2023-02-26T04:01:05;14.30;56.90
5808;DHT22;2930;42.678;23.312;2023-02-26T04:03:40;14.30;56.80
5808;DHT22;2930;42.678;23.312;2023-02-26T04:06:09;14.30;57.10
5808;DHT22;2930;42.678;23.312;2023-02-26T04:08:35;14.30;57.30
5808;DHT22;2930;42.678;23.312;2023-02-26T04:11:10;14.30;57.50
5808;DHT22;2930;42.678;23.312;2023-02-26T04:13:36;14.20;56.90
5808;DHT22;2930;42.678;23.312;2023-02-26T04:16:02;14.20;56.80
5808;DHT22;2930;42.678;23.312;2023-02-26T04:18:28;14.30;56.80
5808;DHT22;2930;42.678;23.312;2023-02-26T04:20:54;14.30;56.80
5808;DHT22;2930;42.678;23.312;2023-02-26T04:23:19;14.40;56.60
5808;DHT22;2930;42.678;23.312;2023-02-26T04:25:45;14.30;56.60
5808;DHT22;2930;42.678;23.312;2023-02-26T04:28:11;14.40;56.90
5808;DHT22;2930;42.678;23.312;2023-02-26T04:30:37;14.40;56.90
5808;DHT22;2930;42.678;23.312;2023-02-26T04:33:03;14.30;56.70
5808;DHT22;2930;42.678;23.312;2023-02-26T04:35:29;14.30;56.40
5808;DHT22;2930;42.678;23.312;2023-02-26T04:37:54;14.30;56.10
5808;DHT22;2930;42.678;23.312;2023-02-26T04:40:20;14.30;56.30
5808;DHT22;2930;42.678;23.312;2023-02-26T04:42:48;14.30;56.40
5808;DHT22;2930;42.678;23.312;2023-02-26T04:45:14;14.30;56.30
5808;DHT22;2930;42.678;23.312;2023-02-26T04:47:39;14.30;56.70
5808;DHT22;2930;42.678;23.312;2023-02-26T04:50:06;14.30;56.60
5808;DHT22;2930;42.678;23.312;2023-02-26T04:52:32;14.10;57.40
5808;DHT22;2930;42.678;23.312;2023-02-26T04:54:57;14.20;55.40
5808;DHT22;2930;42.678;23.312;2023-02-26T04:57:23;14.30;55.90
5808;DHT22;2930;42.678;23.312;2023-02-26T04:59:49;14.30;55.80
5808;DHT22;2930;42.678;23.312;2023-02-26T05:02:14;14.30;55.60
5808;DHT22;2930;42.678;23.312;2023-02-26T05:04:40;14.40;55.60
5808;DHT22;2930;42.678;23.312;2023-02-26T05:07:06;14.40;55.50
5808;DHT22;2930;42.678;23.312;2023-02-26T05:09:31;14.40;55.20
5808;DHT22;2930;42.678;23.312;2023-02-26T05:11:57;14.40;55.00
5808;DHT22;2930;42.678;23.312;2023-02-26T05:14:23;14.40;55.20
5808;DHT22;2930;42.678;23.312;2023-02-26T05:16:48;14.50;54.70
5808;DHT22;2930;42.678;23.312;2023-02-26T05:19:14;14.50;54.40
5808;DHT22;2930;42.678;23.312;2023-02-26T05:21:40;14.60;54.30
5808;DHT22;2930;42.678;23.312;2023-02-26T05:24:06;14.70;54.50
5808;DHT22;2930;42.678;23.312;2023-02-26T05:26:32;14.70;54.40
5808;DHT22;2930;42.678;23.312;2023-02-26T05:28:57;14.80;54.40
5808;DHT22;2930;42.678;23.312;2023-02-26T05:31:23;14.80;54.40
5808;DHT22;2930;42.678;23.312;2023-02-26T05:33:51;14.80;54.20
5808;DHT22;2930;42.678;23.312;2023-02-26T05:36:17;14.80;54.20
5808;DHT22;2930;42.678;23.312;2023-02-26T05:38:42;14.80;54.30
5808;DHT22;2930;42.678;23.312;2023-02-26T05:41:08;14.90;54.20
5808;DHT22;2930;42.678;23.312;2023-02-26T05:43:34;14.90;54.40
5808;DHT22;2930;42.678;23.312;2023-02-26T05:46:00;14.90;54.00
5808;DHT22;2930;42.678;23.312;2023-02-26T05:48:26;15.00;54.10
5808;DHT22;2930;42.678;23.312;2023-02-26T05:50:52;14.90;53.90
5808;DHT22;2930;42.678;23.312;2023-02-26T05:53:18;15.00;54.10
5808;DHT22;2930;42.678;23.312;2023-02-26T05:55:44;15.00;53.70
5808;DHT22;2930;42.678;23.312;2023-02-26T05:58:09;15.10;53.70
5808;DHT22;2930;42.678;23.312;2023-02-26T06:00:35;15.10;53.70
5808;DHT22;2930;42.678;23.312;2023-02-26T06:03:01;15.10;54.10
5808;DHT22;2930;42.678;23.312;2023-02-26T06:05:27;15.10;54.00
5808;DHT22;2930;42.678;23.312;2023-02-26T06:07:52;15.10;53.80
5808;DHT22;2930;42.678;23.312;2023-02-26T06:10:18;15.20;53.30
5808;DHT22;2930;42.678;23.312;2023-02-26T06:12:44;15.20;53.00
5808;DHT22;2930;42.678;23.312;2023-02-26T06:15:10;15.30;53.00
5808;DHT22;2930;42.678;23.312;2023-02-26T06:17:36;15.40;52.70
5808;DHT22;2930;42.678;23.312;2023-02-26T06:20:03;15.40;52.50
5808;DHT22;2930;42.678;23.312;2023-02-26T06:22:29;15.50;52.60
5808;DHT22;2930;42.678;23.312;2023-02-26T06:24:55;15.50;52.50
5808;DHT22;2930;42.678;23.312;2023-02-26T06:27:21;15.60;52.10
5808;DHT22;2930;42.678;23.312;2023-02-26T06:29:47;15.70;52.40
5808;DHT22;2930;42.678;23.312;2023-02-26T06:32:12;15.70;51.60
5808;DHT22;2930;42.678;23.312;2023-02-26T06:34:38;15.80;51.60
5808;DHT22;2930;42.678;23.312;2023-02-26T06:37:04;15.90;51.50
5808;DHT22;2930;42.678;23.312;2023-02-26T06:39:30;16.00;51.30
5808;DHT22;2930;42.678;23.312;2023-02-26T06:41:55;16.00;51.30
5808;DHT22;2930;42.678;23.312;2023-02-26T06:44:21;16.00;51.10
5808;DHT22;2930;42.678;23.312;2023-02-26T06:46:46;16.00;50.70
5808;DHT22;2930;42.678;23.312;2023-02-26T06:49:12;16.00;50.90
5808;DHT22;2930;42.678;23.312;2023-02-26T06:51:38;16.10;51.00
5808;DHT22;2930;42.678;23.312;2023-02-26T06:54:03;16.10;51.00
5808;DHT22;2930;42.678;23.312;2023-02-26T06:56:29;16.20;51.00
5808;DHT22;2930;42.678;23.312;2023-02-26T06:58:55;16.30;50.20
5808;DHT22;2930;42.678;23.312;2023-02-26T07:01:21;16.30;50.30
5808;DHT22;2930;42.678;23.312;2023-02-26T07:03:46;16.30;50.30
5808;DHT22;2930;42.678;23.312;2023-02-26T07:06:12;16.40;50.20
5808;DHT22;2930;42.678;23.312;2023-02-26T07:08:38;16.40;49.90
5808;DHT22;2930;42.678;23.312;2023-02-26T07:11:04;16.40;50.20
5808;DHT22;2930;42.678;23.312;2023-02-26T07:13:29;16.50;50.30
5808;DHT22;2930;42.678;23.312;2023-02-26T07:15:55;16.60;50.30
5808;DHT22;2930;42.678;23.312;2023-02-26T07:18:21;16.70;49.60
5808;DHT22;2930;42.678;23.312;2023-02-26T07:20:50;16.80;49.80
5808;DHT22;2930;42.678;23.312;2023-02-26T07:23:16;16.60;49.40
5808;DHT22;2930;42.678;23.312;2023-02-26T07:25:41;16.70;49.80
5808;DHT22;2930;42.678;23.312;2023-02-26T07:28:07;16.70;49.80
5808;DHT22;2930;42.678;23.312;2023-02-26T07:30:33;16.90;49.80
5808;DHT22;2930;42.678;23.312;2023-02-26T07:32:58;17.10;50.10
5808;DHT22;2930;42.678;23.312;2023-02-26T07:35:24;17.20;48.80
5808;DHT22;2930;42.678;23.312;2023-02-26T07:37:50;17.30;48.50
5808;DHT22;2930;42.678;23.312;2023-02-26T07:40:17;17.50;48.70
5808;DHT22;2930;42.678;23.312;2023-02-26T07:42:43;17.60;48.80
5808;DHT22;2930;42.678;23.312;2023-02-26T07:45:09;17.60;48.60
5808;DHT22;2930;42.678;23.312;2023-02-26T07:47:34;17.70;48.40
5808;DHT22;2930;42.678;23.312;2023-02-26T07:50:00;17.60;48.80
5808;DHT22;2930;42.678;23.312;2023-02-26T07:52:26;17.80;48.40
5808;DHT22;2930;42.678;23.312;2023-02-26T07:54:53;18.00;48.10
5808;DHT22;2930;42.678;23.312;2023-02-26T07:57:19;18.20;48.80
5808;DHT22;2930;42.678;23.312;2023-02-26T07:59:44;18.40;47.00
5808;DHT22;2930;42.678;23.312;2023-02-26T08:02:11;18.20;46.80
5808;DHT22;2930;42.678;23.312;2023-02-26T08:04:37;18.20;48.00
5808;DHT22;2930;42.678;23.312;2023-02-26T08:07:03;18.10;47.20
5808;DHT22;2930;42.678;23.312;2023-02-26T08:09:29;18.10;47.50
5808;DHT22;2930;42.678;23.312;2023-02-26T08:11:55;18.20;47.40
5808;DHT22;2930;42.678;23.312;2023-02-26T08:14:21;18.20;47.50
5808;DHT22;2930;42.678;23.312;2023-02-26T08:16:47;18.20;46.90
5808;DHT22;2930;42.678;23.312;2023-02-26T08:19:13;18.30;46.80
5808;DHT22;2930;42.678;23.312;2023-02-26T08:21:39;18.30;47.30
5808;DHT22;2930;42.678;23.312;2023-02-26T08:26:34;18.10;47.00
5808;DHT22;2930;42.678;23.312;2023-02-26T08:31:25;18.20;47.20
5808;DHT22;2930;42.678;23.312;2023-02-26T08:36:18;18.40;46.80
5808;DHT22;2930;42.678;23.312;2023-02-26T08:41:12;18.60;47.30
5808;DHT22;2930;42.678;23.312;2023-02-26T08:43:38;18.80;46.90
5808;DHT22;2930;42.678;23.312;2023-02-26T08:46:04;18.80;46.80
5808;DHT22;2930;42.678;23.312;2023-02-26T08:48:30;18.90;46.80
5808;DHT22;2930;42.678;23.312;2023-02-26T08:50:55;18.90;46.80
5808;DHT22;2930;42.678;23.312;2023-02-26T08:53:21;19.00;46.90
5808;DHT22;2930;42.678;23.312;2023-02-26T08:55:48;19.00;46.50
5808;DHT22;2930;42.678;23.312;2023-02-26T08:58:14;18.80;46.40
5808;DHT22;2930;42.678;23.312;2023-02-26T09:00:39;18.80;47.00
5808;DHT22;2930;42.678;23.312;2023-02-26T09:03:05;18.70;46.30
5808;DHT22;2930;42.678;23.312;2023-02-26T09:05:31;18.80;47.00
5808;DHT22;2930;42.678;23.312;2023-02-26T09:07:56;18.80;46.00
5808;DHT22;2930;42.678;23.312;2023-02-26T09:10:22;18.70;46.40
5808;DHT22;2930;42.678;23.312;2023-02-26T09:12:48;18.80;46.60
5808;DHT22;2930;42.678;23.312;2023-02-26T09:15:13;19.00;45.00
5808;DHT22;2930;42.678;23.312;2023-02-26T09:17:39;19.50;45.40
5808;DHT22;2930;42.678;23.312;2023-02-26T09:20:06;20.00;45.60
5808;DHT22;2930;42.678;23.312;2023-02-26T09:22:31;20.40;44.30
5808;DHT22;2930;42.678;23.312;2023-02-26T09:24:57;21.00;43.70
5808;DHT22;2930;42.678;23.312;2023-02-26T09:27:23;21.50;42.70
5808;DHT22;2930;42.678;23.312;2023-02-26T09:29:49;21.90;42.00
5808;DHT22;2930;42.678;23.312;2023-02-26T09:32:15;22.00;43.30
5808;DHT22;2930;42.678;23.312;2023-02-26T09:34:42;22.30;41.80
5808;DHT22;2930;42.678;23.312;2023-02-26T09:37:08;22.40;41.70
5808;DHT22;2930;42.678;23.312;2023-02-26T09:39:35;22.30;42.00
5808;DHT22;2930;42.678;23.312;2023-02-26T09:45:01;22.80;41.20
5808;DHT22;2930;42.678;23.312;2023-02-26T09:47:36;22.80;41.00
5808;DHT22;2930;42.678;23.312;2023-02-26T09:50:24;22.70;41.50
5808;DHT22;2930;42.678;23.312;2023-02-26T09:55:43;23.40;43.50
5808;DHT22;2930;42.678;23.312;2023-02-26T09:58:30;24.00;40.30
5808;DHT22;2930;42.678;23.312;2023-02-26T10:12:25;24.10;40.60
5808;DHT22;2930;42.678;23.312;2023-02-26T10:14:59;23.90;40.80
5808;DHT22;2930;42.678;23.312;2023-02-26T10:20:23;23.80;41.00
5808;DHT22;2930;42.678;23.312;2023-02-26T10:23:00;23.50;42.20
5808;DHT22;2930;42.678;23.312;2023-02-26T10:25:35;23.60;41.20
5808;DHT22;2930;42.678;23.312;2023-02-26T10:31:02;23.50;41.10
5808;DHT22;2930;42.678;23.312;2023-02-26T10:37:12;22.70;41.60
5808;DHT22;2930;42.678;23.312;2023-02-26T10:39:40;22.70;42.50
5808;DHT22;2930;42.678;23.312;2023-02-26T10:42:27;22.80;42.30
5808;DHT22;2930;42.678;23.312;2023-02-26T10:50:28;22.20;42.30
5808;DHT22;2930;42.678;23.312;2023-02-26T10:52:54;22.30;42.90
5808;DHT22;2930;42.678;23.312;2023-02-26T10:58:25;21.90;42.90
5808;DHT22;2930;42.678;23.312;2023-02-26T11:00:55;21.80;43.10
5808;DHT22;2930;42.678;23.312;2023-02-26T11:03:54;21.40;44.10
5808;DHT22;2930;42.678;23.312;2023-02-26T11:06:29;21.30;44.40
5808;DHT22;2930;42.678;23.312;2023-02-26T11:08:57;21.20;45.10
5808;DHT22;2930;42.678;23.312;2023-02-26T11:11:42;21.20;44.30
5808;DHT22;2930;42.678;23.312;2023-02-26T11:14:10;21.10;45.00
5808;DHT22;2930;42.678;23.312;2023-02-26T11:16:45;21.10;45.70
5808;DHT22;2930;42.678;23.312;2023-02-26T11:19:14;21.10;46.10
5808;DHT22;2930;42.678;23.312;2023-02-26T11:21:43;21.20;46.20
5808;DHT22;2930;42.678;23.312;2023-02-26T11:24:27;21.30;45.60
5808;DHT22;2930;42.678;23.312;2023-02-26T11:26:54;21.10;44.10
5808;DHT22;2930;42.678;23.312;2023-02-26T11:29:21;20.70;45.60
5808;DHT22;2930;42.678;23.312;2023-02-26T11:31:55;20.50;45.60
5808;DHT22;2930;42.678;23.312;2023-02-26T11:34:25;20.20;45.80
5808;DHT22;2930;42.678;23.312;2023-02-26T11:36:55;19.80;46.10
5808;DHT22;2930;42.678;23.312;2023-02-26T11:39:27;19.60;47.20
5808;DHT22;2930;42.678;23.312;2023-02-26T11:41:58;19.50;47.20
5808;DHT22;2930;42.678;23.312;2023-02-26T11:44:45;19.10;47.70
5808;DHT22;2930;42.678;23.312;2023-02-26T11:47:13;18.80;48.00
5808;DHT22;2930;42.678;23.312;2023-02-26T11:49:42;18.70;48.70
5808;DHT22;2930;42.678;23.312;2023-02-26T11:54:40;18.40;49.00
5808;DHT22;2930;42.678;23.312;2023-02-26T11:57:17;18.50;49.50
5808;DHT22;2930;42.678;23.312;2023-02-26T11:59:47;18.50;49.00
5808;DHT22;2930;42.678;23.312;2023-02-26T12:02:14;18.60;48.90
5808;DHT22;2930;42.678;23.312;2023-02-26T12:04:44;18.80;48.90
5808;DHT22;2930;42.678;23.312;2023-02-26T12:07:14;19.00;48.80
5808;DHT22;2930;42.678;23.312;2023-02-26T12:09:40;19.10;49.00
5808;DHT22;2930;42.678;23.312;2023-02-26T12:12:41;19.20;49.40
5808;DHT22;2930;42.678;23.312;2023-02-26T12:40:14;20.10;50.00
5808;DHT22;2930;42.678;23.312;2023-02-26T13:10:00;21.10;47.30
5808;DHT22;2930;42.678;23.312;2023-02-26T13:18:21;19.80;49.60
5808;DHT22;2930;42.678;23.312;2023-02-26T13:21:01;19.50;51.10
5808;DHT22;2930;42.678;23.312;2023-02-26T13:24:04;19.20;51.60
5808;DHT22;2930;42.678;23.312;2023-02-26T13:26:23;19.10;51.50
5808;DHT22;2930;42.678;23.312;2023-02-26T13:29:13;19.00;52.70
5808;DHT22;2930;42.678;23.312;2023-02-26T13:31:57;19.10;52.20
5808;DHT22;2930;42.678;23.312;2023-02-26T13:34:42;19.30;52.20
5808;DHT22;2930;42.678;23.312;2023-02-26T13:37:30;19.60;51.90
5808;DHT22;2930;42.678;23.312;2023-02-26T13:48:46;21.20;48.30
5808;DHT22;2930;42.678;23.312;2023-02-26T13:51:41;21.20;48.70
5808;DHT22;2930;42.678;23.312;2023-02-26T14:01:52;21.10;49.40
5808;DHT22;2930;42.678;23.312;2023-02-26T14:20:18;21.30;49.50
5808;DHT22;2930;42.678;23.312;2023-02-26T14:22:52;21.20;48.80
5808;DHT22;2930;42.678;23.312;2023-02-26T14:25:32;21.10;49.60
5808;DHT22;2930;42.678;23.312;2023-02-26T14:30:52;20.70;49.40
5808;DHT22;2930;42.678;23.312;2023-02-26T14:33:28;20.50;49.50
5808;DHT22;2930;42.678;23.312;2023-02-26T14:35:54;20.20;50.90
5808;DHT22;2930;42.678;23.312;2023-02-26T14:38:29;20.10;51.30
5808;DHT22;2930;42.678;23.312;2023-02-26T14:41:03;19.60;49.30
5808;DHT22;2930;42.678;23.312;2023-02-26T14:43:35;19.40;51.10
5808;DHT22;2930;42.678;23.312;2023-02-26T14:46:02;19.30;48.80
5808;DHT22;2930;42.678;23.312;2023-02-26T14:48:29;19.00;48.60
5808;DHT22;2930;42.678;23.312;2023-02-26T14:54:05;18.70;50.80
5808;DHT22;2930;42.678;23.312;2023-02-26T15:05:23;18.30;52.20
5808;DHT22;2930;42.678;23.312;2023-02-26T15:13:31;18.20;52.10
5808;DHT22;2930;42.678;23.312;2023-02-26T15:24:36;18.00;52.90
5808;DHT22;2930;42.678;23.312;2023-02-26T15:27:04;17.90;52.50
5808;DHT22;2930;42.678;23.312;2023-02-26T15:29:35;17.90;51.90
5808;DHT22;2930;42.678;23.312;2023-02-26T15:32:15;17.90;53.30
5808;DHT22;2930;42.678;23.312;2023-02-26T15:34:48;17.80;53.20
5808;DHT22;2930;42.678;23.312;2023-02-26T15:37:21;17.80;53.50
5808;DHT22;2930;42.678;23.312;2023-02-26T15:39:49;17.60;53.60
5808;DHT22;2930;42.678;23.312;2023-02-26T15:42:16;17.60;53.40
5808;DHT22;2930;42.678;23.312;2023-02-26T15:44:44;17.50;54.10
5808;DHT22;2930;42.678;23.312;2023-02-26T15:47:10;17.40;54.30
5808;DHT22;2930;42.678;23.312;2023-02-26T15:49:39;17.30;54.00
5808;DHT22;2930;42.678;23.312;2023-02-26T15:52:07;17.20;54.20
5808;DHT22;2930;42.678;23.312;2023-02-26T15:54:44;17.20;54.50
5808;DHT22;2930;42.678;23.312;2023-02-26T15:57:12;17.10;54.80
5808;DHT22;2930;42.678;23.312;2023-02-26T15:59:44;16.90;54.80
5808;DHT22;2930;42.678;23.312;2023-02-26T16:02:15;16.90;55.20
5808;DHT22;2930;42.678;23.312;2023-02-26T16:04:43;16.80;54.60
5808;DHT22;2930;42.678;23.312;2023-02-26T16:07:10;16.80;54.70
5808;DHT22;2930;42.678;23.312;2023-02-26T16:09:43;16.80;54.40
5808;DHT22;2930;42.678;23.312;2023-02-26T16:12:16;16.90;54.50
5808;DHT22;2930;42.678;23.312;2023-02-26T16:14:49;16.80;54.40
5808;DHT22;2930;42.678;23.312;2023-02-26T16:17:26;16.80;54.70
5808;DHT22;2930;42.678;23.312;2023-02-26T16:19:52;16.70;55.00
5808;DHT22;2930;42.678;23.312;2023-02-26T16:24:53;16.70;55.30
5808;DHT22;2930;42.678;23.312;2023-02-26T16:27:20;16.60;55.80
5808;DHT22;2930;42.678;23.312;2023-02-26T16:29:51;16.50;56.30
5808;DHT22;2930;42.678;23.312;2023-02-26T16:32:19;16.50;56.20
5808;DHT22;2930;42.678;23.312;2023-02-26T16:34:56;16.40;57.10
5808;DHT22;2930;42.678;23.312;2023-02-26T16:40:25;16.20;59.00
5808;DHT22;2930;42.678;23.312;2023-02-26T16:43:18;16.20;58.40
5808;DHT22;2930;42.678;23.312;2023-02-26T16:45:59;16.00;58.00
5808;DHT22;2930;42.678;23.312;2023-02-26T16:48:37;16.00;58.60
5808;DHT22;2930;42.678;23.312;2023-02-26T16:51:15;16.00;56.90
5808;DHT22;2930;42.678;23.312;2023-02-26T16:53:55;16.00;57.10
5808;DHT22;2930;42.678;23.312;2023-02-26T16:56:27;16.00;57.80
5808;DHT22;2930;42.678;23.312;2023-02-26T16:59:05;16.00;58.10
5808;DHT22;2930;42.678;23.312;2023-02-26T17:01:37;15.90;58.40
5808;DHT22;2930;42.678;23.312;2023-02-26T17:04:05;15.90;59.10
5808;DHT22;2930;42.678;23.312;2023-02-26T17:06:32;15.80;59.60
5808;DHT22;2930;42.678;23.312;2023-02-26T17:09:05;15.80;59.90
5808;DHT22;2930;42.678;23.312;2023-02-26T17:11:39;15.70;59.90
5808;DHT22;2930;42.678;23.312;2023-02-26T17:14:16;15.70;60.00
5808;DHT22;2930;42.678;23.312;2023-02-26T17:16:47;15.60;60.40
5808;DHT22;2930;42.678;23.312;2023-02-26T17:19:15;15.60;61.10
5808;DHT22;2930;42.678;23.312;2023-02-26T17:24:16;15.40;61.60
5808;DHT22;2930;42.678;23.312;2023-02-26T17:26:43;15.30;61.40
5808;DHT22;2930;42.678;23.312;2023-02-26T17:29:21;15.40;60.50
5808;DHT22;2930;42.678;23.312;2023-02-26T17:31:49;15.30;60.50
5808;DHT22;2930;42.678;23.312;2023-02-26T17:34:17;15.30;59.20
5808;DHT22;2930;42.678;23.312;2023-02-26T17:36:43;15.40;59.70
5808;DHT22;2930;42.678;23.312;2023-02-26T17:39:12;15.40;59.70
5808;DHT22;2930;42.678;23.312;2023-02-26T17:41:41;15.40;59.40
5808;DHT22;2930;42.678;23.312;2023-02-26T17:44:07;15.50;59.70
5808;DHT22;2930;42.678;23.312;2023-02-26T17:46:32;15.40;60.80
5808;DHT22;2930;42.678;23.312;2023-02-26T17:48:58;15.40;61.50
5808;DHT22;2930;42.678;23.312;2023-02-26T17:51:24;15.30;61.60
5808;DHT22;2930;42.678;23.312;2023-02-26T17:53:51;15.20;62.60
5808;DHT22;2930;42.678;23.312;2023-02-26T17:56:29;15.10;62.90
5808;DHT22;2930;42.678;23.312;2023-02-26T17:58:56;15.00;62.80
5808;DHT22;2930;42.678;23.312;2023-02-26T18:01:23;15.00;62.90
5808;DHT22;2930;42.678;23.312;2023-02-26T18:03:50;14.90;62.90
5808;DHT22;2930;42.678;23.312;2023-02-26T18:06:16;14.80;63.20
5808;DHT22;2930;42.678;23.312;2023-02-26T18:08:42;14.70;63.50
5808;DHT22;2930;42.678;23.312;2023-02-26T18:11:10;14.70;63.60
5808;DHT22;2930;42.678;23.312;2023-02-26T18:13:37;14.60;63.30
5808;DHT22;2930;42.678;23.312;2023-02-26T18:16:04;14.50;63.00
5808;DHT22;2930;42.678;23.312;2023-02-26T18:18:31;14.50;63.00
5808;DHT22;2930;42.678;23.312;2023-02-26T18:20:58;14.40;63.30
5808;DHT22;2930;42.678;23.312;2023-02-26T18:23:24;14.30;63.80
5808;DHT22;2930;42.678;23.312;2023-02-26T18:25:52;14.20;63.90
5808;DHT22;2930;42.678;23.312;2023-02-26T18:28:24;14.10;63.60
5808;DHT22;2930;42.678;23.312;2023-02-26T18:30:50;14.00;63.90
5808;DHT22;2930;42.678;23.312;2023-02-26T18:33:17;14.00;64.20
5808;DHT22;2930;42.678;23.312;2023-02-26T18:35:44;13.90;64.00
5808;DHT22;2930;42.678;23.312;2023-02-26T18:38:13;13.90;64.10
5808;DHT22;2930;42.678;23.312;2023-02-26T18:40:39;13.80;64.00
5808;DHT22;2930;42.678;23.312;2023-02-26T18:43:05;13.70;64.60
5808;DHT22;2930;42.678;23.312;2023-02-26T18:45:30;13.70;64.70
5808;DHT22;2930;42.678;23.312;2023-02-26T18:47:56;13.70;64.60
5808;DHT22;2930;42.678;23.312;2023-02-26T18:50:22;13.60;64.70
5808;DHT22;2930;42.678;23.312;2023-02-26T18:52:47;13.60;64.40
5808;DHT22;2930;42.678;23.312;2023-02-26T18:55:13;13.50;64.60
5808;DHT22;2930;42.678;23.312;2023-02-26T18:57:40;13.50;64.80
5808;DHT22;2930;42.678;23.312;2023-02-26T19:00:08;13.50;64.80
5808;DHT22;2930;42.678;23.312;2023-02-26T19:02:34;13.40;65.00
5808;DHT22;2930;42.678;23.312;2023-02-26T19:05:00;13.40;65.20
5808;DHT22;2930;42.678;23.312;2023-02-26T19:07:26;13.30;65.40
5808;DHT22;2930;42.678;23.312;2023-02-26T19:09:52;13.30;65.30
5808;DHT22;2930;42.678;23.312;2023-02-26T19:12:18;13.30;65.60
5808;DHT22;2930;42.678;23.312;2023-02-26T19:14:46;13.20;65.60
5808;DHT22;2930;42.678;23.312;2023-02-26T19:17:12;13.10;65.80
5808;DHT22;2930;42.678;23.312;2023-02-26T19:19:37;13.10;65.80
5808;DHT22;2930;42.678;23.312;2023-02-26T19:22:09;13.20;65.90
5808;DHT22;2930;42.678;23.312;2023-02-26T19:24:35;13.10;66.00
5808;DHT22;2930;42.678;23.312;2023-02-26T19:27:02;13.00;66.00
5808;DHT22;2930;42.678;23.312;2023-02-26T19:29:28;13.00;66.40
5808;DHT22;2930;42.678;23.312;2023-02-26T19:31:53;13.00;66.60
5808;DHT22;2930;42.678;23.312;2023-02-26T19:34:19;12.90;66.60
5808;DHT22;2930;42.678;23.312;2023-02-26T19:36:45;12.90;67.20
5808;DHT22;2930;42.678;23.312;2023-02-26T19:39:14;12.90;67.10
5808;DHT22;2930;42.678;23.312;2023-02-26T19:41:40;12.90;67.00
5808;DHT22;2930;42.678;23.312;2023-02-26T19:44:06;12.90;67.30
5808;DHT22;2930;42.678;23.312;2023-02-26T19:46:31;12.90;67.40